createdAt,value
2023-08-10T00:02:51.370Z,2.17
2023-08-10T00:07:56.985Z,3.40
2023-08-10T00:13:02.778Z,6.57
2023-08-10T00:18:08.496Z,5.30
2023-08-10T00:23:14.158Z,8.43
2023-08-10T00:28:19.464Z,9.00
2023-08-10T00:33:33.590Z,6.27
2023-08-10T00:38:43.151Z,10.40
2023-08-10T00:43:48.555Z,7.40
2023-08-10T00:48:54.770Z,10.83
2023-08-10T00:54:00.534Z,12.33
2023-08-10T00:59:06.247Z,9.77
2023-08-10T01:04:11.492Z,4.27
2023-08-10T01:09:37.803Z,9.53
2023-08-10T01:14:49.164Z,5.30
2023-08-10T01:19:56.157Z,6.63
2023-08-10T01:25:07.591Z,8.30
2023-08-10T01:30:13.992Z,6.80
2023-08-10T01:35:19.406Z,6.40
2023-08-10T01:40:24.802Z,3.63
2023-08-10T01:45:30.239Z,5.27
2023-08-10T01:50:38.407Z,9.07
2023-08-10T01:55:44.350Z,9.47
2023-08-10T02:00:49.931Z,9.07
2023-08-10T02:05:56.382Z,6.33
2023-08-10T02:11:01.819Z,4.93
2023-08-10T02:16:07.294Z,8.10
2023-08-10T02:21:12.651Z,6.13
2023-08-10T02:26:18.802Z,7.73
2023-08-10T02:31:26.083Z,5.97
2023-08-10T02:36:31.657Z,6.10
2023-08-10T02:41:37.072Z,13.57
2023-08-10T02:46:42.374Z,5.10
2023-08-10T02:51:47.744Z,8.57
2023-08-10T02:56:53.204Z,6.77
2023-08-10T03:01:58.590Z,6.93
2023-08-10T03:07:04.088Z,4.50
2023-08-10T03:12:10.440Z,4.13
2023-08-10T03:17:16.540Z,4.73
2023-08-10T03:22:22.021Z,2.70
2023-08-10T03:27:27.789Z,12.53
2023-08-10T03:32:33.306Z,12.83
2023-08-10T03:37:39.065Z,10.20
2023-08-10T03:42:44.482Z,7.27
2023-08-10T03:47:50.808Z,7.53
2023-08-10T03:52:56.237Z,5.57
2023-08-10T03:58:01.724Z,5.23
2023-08-10T04:03:07.425Z,3.37
2023-08-10T04:08:16.809Z,6.93
2023-08-10T04:13:23.631Z,9.70
2023-08-10T04:18:30.087Z,15.00
2023-08-10T04:23:37.358Z,12.20
2023-08-10T04:28:44.056Z,18.10
2023-08-10T04:33:50.819Z,13.80
2023-08-10T04:38:58.327Z,19.57
2023-08-10T04:44:05.688Z,12.37
2023-08-10T04:49:20.303Z,22.97
2023-08-10T04:54:33.669Z,16.53
2023-08-10T04:59:54.932Z,6.93
2023-08-10T05:05:20.066Z,9.63
2023-08-10T05:10:36.967Z,2.93
2023-08-10T05:15:46.134Z,10.40
2023-08-10T05:20:53.605Z,6.70
2023-08-10T05:36:56.108Z,6.47
2023-08-10T05:42:14.905Z,2.00
2023-08-10T05:47:23.820Z,3.17
2023-08-10T05:52:32.892Z,2.93
2023-08-10T05:57:40.175Z,3.20
2023-08-10T06:02:47.559Z,2.57
2023-08-10T06:07:57.157Z,6.47
2023-08-10T06:18:55.403Z,4.97
2023-08-10T06:24:17.238Z,2.97
2023-08-10T06:29:24.430Z,4.83
2023-08-10T06:34:33.351Z,2.30
2023-08-10T06:39:42.838Z,2.30
2023-08-10T06:44:52.838Z,3.80
2023-08-10T06:50:02.743Z,2.63
2023-08-10T06:55:18.702Z,1.60
2023-08-10T07:16:43.997Z,1.07
2023-08-10T07:21:50.678Z,1.47
2023-08-10T07:26:58.385Z,4.63
2023-08-10T07:32:05.021Z,2.80
2023-08-10T07:37:12.227Z,2.20
2023-08-10T07:42:17.797Z,1.53
2023-08-10T07:47:23.287Z,8.53
2023-08-10T07:52:28.862Z,0.83
2023-08-10T07:57:36.191Z,3.00
2023-08-10T08:02:44.334Z,4.90
2023-08-10T08:07:51.368Z,2.00
2023-08-10T08:12:59.161Z,2.27
2023-08-10T08:18:41.347Z,1.67
2023-08-10T08:23:49.315Z,2.40
2023-08-10T08:28:59.101Z,3.77
2023-08-10T08:34:05.101Z,7.10
2023-08-10T08:39:13.956Z,1.40
2023-08-10T08:44:24.311Z,1.43
2023-08-10T08:49:32.630Z,1.47
2023-08-10T08:54:42.715Z,0.95
2023-08-10T08:59:54.035Z,2.70
2023-08-10T09:05:00.900Z,3.62
2023-08-10T09:10:09.255Z,2.10
2023-08-10T09:15:16.769Z,2.35
2023-08-10T09:20:28.218Z,1.25
2023-08-10T09:25:43.620Z,3.12
2023-08-10T09:30:51.065Z,3.80
2023-08-10T09:36:02.322Z,3.33
2023-08-10T09:41:15.302Z,2.27
2023-08-10T09:46:21.489Z,2.83
2023-08-10T09:51:29.027Z,2.95
2023-08-10T09:56:37.051Z,2.77
2023-08-10T10:01:43.542Z,3.60
2023-08-10T10:06:55.038Z,1.07
2023-08-10T10:12:02.996Z,4.83
2023-08-10T10:17:10.800Z,1.52
2023-08-10T10:22:18.238Z,5.85
2023-08-10T10:27:23.818Z,3.52
2023-08-10T10:32:29.421Z,5.83
2023-08-10T10:37:36.276Z,1.85
2023-08-10T10:43:02.454Z,3.83
2023-08-10T10:48:16.941Z,2.55
2023-08-10T10:53:25.877Z,3.72
2023-08-10T10:58:32.506Z,2.65
2023-08-10T11:03:43.079Z,5.10
2023-08-10T11:08:54.747Z,6.10
2023-08-10T11:14:00.210Z,9.80
2023-08-10T11:19:09.154Z,3.10
2023-08-10T11:24:14.774Z,0.70
2023-08-10T11:29:23.713Z,1.70
2023-08-10T11:34:30.287Z,0.93
2023-08-10T11:39:38.710Z,1.57
2023-08-10T11:44:50.149Z,4.08
2023-08-10T11:49:58.499Z,4.08
2023-08-10T11:55:22.276Z,1.30
2023-08-10T12:00:41.240Z,2.05
2023-08-10T12:05:52.559Z,2.85
2023-08-10T12:11:09.056Z,3.52
2023-08-10T12:16:15.932Z,2.17
2023-08-10T12:21:21.632Z,2.05
2023-08-10T12:26:28.761Z,7.58
2023-08-10T12:31:37.407Z,2.05
2023-08-10T12:36:45.453Z,0.95
2023-08-10T12:41:51.120Z,3.72
2023-08-10T12:46:58.089Z,3.58
2023-08-10T12:52:04.088Z,8.98
2023-08-10T12:57:11.234Z,3.00
2023-08-10T13:02:31.993Z,5.15
2023-08-10T13:07:25.667Z,5.67
2023-08-10T13:12:32.482Z,4.05
2023-08-10T13:17:38.219Z,3.83
2023-08-10T13:22:50.988Z,3.95
2023-08-10T13:28:00.983Z,3.62
2023-08-10T13:33:09.796Z,3.50
2023-08-10T13:38:20.798Z,2.92
2023-08-10T13:43:26.854Z,4.22
2023-08-10T13:48:34.603Z,6.12
2023-08-10T13:53:47.586Z,1.42
2023-08-10T13:59:00.811Z,6.20
2023-08-10T14:04:12.391Z,2.92
2023-08-10T14:09:19.083Z,3.35
2023-08-10T14:14:26.417Z,2.72
2023-08-10T14:19:32.952Z,2.02
2023-08-10T14:24:38.503Z,8.83
2023-08-10T14:29:49.384Z,5.47
2023-08-10T14:34:56.573Z,4.55
2023-08-10T14:40:02.433Z,3.52
2023-08-10T14:45:10.103Z,1.95
2023-08-10T14:50:15.855Z,5.72
2023-08-10T14:55:22.282Z,2.08
2023-08-10T15:05:37.135Z,2.55
2023-08-10T15:10:42.787Z,2.42
2023-08-10T15:15:48.277Z,3.27
2023-08-10T15:20:53.733Z,2.62
2023-08-10T15:26:00.378Z,3.47
2023-08-10T15:31:10.438Z,2.60
2023-08-10T15:36:16.130Z,2.83
2023-08-10T15:41:21.536Z,3.98
2023-08-10T15:46:27.133Z,5.70
2023-08-10T15:51:32.433Z,2.63
2023-08-10T15:56:37.825Z,4.10
2023-08-10T16:01:43.224Z,4.87
2023-08-10T16:06:50.983Z,4.97
2023-08-10T16:11:59.734Z,3.83
2023-08-10T16:17:08.207Z,2.47
2023-08-10T16:22:32.526Z,6.67
2023-08-10T16:27:40.433Z,7.72
2023-08-10T16:32:48.131Z,4.25
2023-08-10T16:37:56.016Z,2.98
2023-08-10T16:43:04.735Z,4.40
2023-08-10T16:48:15.623Z,6.17
2023-08-10T16:53:21.678Z,3.87
2023-08-10T16:58:36.228Z,2.45
2023-08-10T17:03:42.145Z,6.50
2023-08-10T17:08:47.560Z,1.97
2023-08-10T17:13:55.868Z,2.10
2023-08-10T17:19:07.632Z,5.33
2023-08-10T17:24:15.653Z,2.67
2023-08-10T17:29:21.881Z,5.40
2023-08-10T17:34:29.550Z,2.40
2023-08-10T17:39:35.010Z,5.33
2023-08-10T17:44:42.258Z,3.17
2023-08-10T17:49:49.303Z,5.00
2023-08-10T17:54:59.205Z,10.40
2023-08-10T18:00:17.802Z,1.90
2023-08-10T18:05:23.338Z,18.20
2023-08-10T18:10:28.870Z,7.17
2023-08-10T18:15:34.392Z,5.17
2023-08-10T18:20:39.653Z,6.10
2023-08-10T18:25:45.122Z,6.67
2023-08-10T18:30:50.717Z,2.83
2023-08-10T18:35:56.295Z,3.53
2023-08-10T18:41:01.772Z,3.80
2023-08-10T18:46:07.898Z,5.93
2023-08-10T18:51:13.806Z,5.93
2023-08-10T18:56:19.317Z,9.97
2023-08-10T19:01:26.016Z,7.20
2023-08-10T19:06:31.571Z,6.23
2023-08-10T19:11:37.120Z,7.90
2023-08-10T19:16:42.656Z,9.87
2023-08-10T19:21:49.766Z,9.53
2023-08-10T19:26:56.862Z,8.40
2023-08-10T19:32:02.355Z,7.60
2023-08-10T19:37:08.368Z,5.13
2023-08-10T19:42:13.720Z,7.87
2023-08-10T19:47:21.176Z,10.90
2023-08-10T19:52:26.695Z,8.33
2023-08-10T19:57:33.268Z,8.60
2023-08-10T20:02:39.874Z,12.60
2023-08-10T20:07:51.533Z,12.40
2023-08-10T20:13:02.240Z,21.27
2023-08-10T20:18:10.989Z,14.70
2023-08-10T20:23:22.734Z,17.93
2023-08-10T20:28:30.398Z,9.67
2023-08-10T20:33:40.532Z,8.20
2023-08-10T20:38:49.383Z,13.13
2023-08-10T20:43:56.759Z,13.57
2023-08-10T20:49:04.890Z,14.37
2023-08-10T20:54:15.362Z,17.57
2023-08-10T20:59:21.036Z,10.23
2023-08-10T21:04:28.613Z,15.33
2023-08-10T21:09:47.923Z,14.70
2023-08-10T21:14:55.599Z,11.63
2023-08-10T21:20:20.659Z,10.27
2023-08-10T21:25:28.292Z,14.77
2023-08-10T21:30:36.120Z,10.27
2023-08-10T21:35:50.279Z,9.90
2023-08-10T21:41:01.980Z,10.37
2023-08-10T21:46:10.012Z,11.93
2023-08-10T21:51:17.793Z,11.13
2023-08-10T21:56:23.312Z,15.27
2023-08-10T22:01:30.704Z,9.03
2023-08-10T22:06:41.506Z,9.33
2023-08-10T22:11:47.011Z,8.23
2023-08-10T22:16:55.732Z,12.57
2023-08-10T22:22:05.802Z,7.13
2023-08-10T22:27:22.399Z,9.87
2023-08-10T22:32:31.723Z,15.07
2023-08-10T22:37:48.805Z,14.33
2023-08-10T22:42:54.504Z,13.77
2023-08-10T22:48:00.563Z,7.67
2023-08-10T22:53:06.384Z,15.77
2023-08-10T22:58:11.944Z,7.53
2023-08-10T23:03:17.383Z,11.70
2023-08-10T23:08:22.955Z,11.07
2023-08-10T23:13:28.418Z,8.47
2023-08-10T23:18:35.072Z,9.63
2023-08-10T23:23:41.030Z,16.23
2023-08-10T23:28:46.425Z,19.90
2023-08-10T23:33:55.027Z,14.07
2023-08-10T23:39:02.030Z,11.43
2023-08-10T23:44:18.868Z,11.43
2023-08-10T23:49:30.010Z,12.37
2023-08-10T23:54:39.274Z,14.33
2023-08-10T23:59:45.071Z,8.57
